sensor_id;sensor_type;location;lat;lon;timestamp;P1;durP1;ratioP1;P2;durP2;ratioP2
8819;SDS011;4446;50.876;4.736;2022-07-03T00:00:13;2.75;;;2.50;;
8819;SDS011;4446;50.876;4.736;2022-07-03T00:02:41;5.88;;;3.20;;
8819;SDS011;4446;50.876;4.736;2022-07-03T00:05:09;5.13;;;3.17;;
8819;SDS011;4446;50.876;4.736;2022-07-03T00:07:36;4.22;;;3.17;;
8819;SDS011;4446;50.876;4.736;2022-07-03T00:10:04;4.07;;;3.17;;
8819;SDS011;4446;50.876;4.736;2022-07-03T00:12:32;4.07;;;3.35;;
8819;SDS011;4446;50.876;4.736;2022-07-03T00:14:59;4.20;;;3.45;;
8819;SDS011;4446;50.876;4.736;2022-07-03T00:17:27;7.28;;;4.35;;
8819;SDS011;4446;50.876;4.736;2022-07-03T00:19:54;4.70;;;3.83;;
8819;SDS011;4446;50.876;4.736;2022-07-03T00:22:23;3.95;;;3.33;;
8819;SDS011;4446;50.876;4.736;2022-07-03T00:24:52;4.80;;;3.63;;
8819;SDS011;4446;50.876;4.736;2022-07-03T00:27:23;3.97;;;3.30;;
8819;SDS011;4446;50.876;4.736;2022-07-03T00:29:52;4.45;;;3.47;;
8819;SDS011;4446;50.876;4.736;2022-07-03T00:32:25;4.63;;;3.28;;
8819;SDS011;4446;50.876;4.736;2022-07-03T00:34:55;3.50;;;3.20;;
8819;SDS011;4446;50.876;4.736;2022-07-03T00:37:24;4.22;;;3.33;;
8819;SDS011;4446;50.876;4.736;2022-07-03T00:39:52;3.55;;;2.92;;
8819;SDS011;4446;50.876;4.736;2022-07-03T00:42:19;3.13;;;2.80;;
8819;SDS011;4446;50.876;4.736;2022-07-03T00:44:46;5.70;;;3.10;;
8819;SDS011;4446;50.876;4.736;2022-07-03T00:47:15;5.32;;;2.90;;
8819;SDS011;4446;50.876;4.736;2022-07-03T00:49:45;4.78;;;2.78;;
8819;SDS011;4446;50.876;4.736;2022-07-03T00:52:13;3.53;;;2.63;;
8819;SDS011;4446;50.876;4.736;2022-07-03T00:54:42;2.70;;;2.50;;
8819;SDS011;4446;50.876;4.736;2022-07-03T00:57:13;3.42;;;2.80;;
8819;SDS011;4446;50.876;4.736;2022-07-03T00:59:41;3.50;;;2.55;;
8819;SDS011;4446;50.876;4.736;2022-07-03T01:02:11;4.80;;;2.95;;
8819;SDS011;4446;50.876;4.736;2022-07-03T01:04:52;4.78;;;2.35;;
8819;SDS011;4446;50.876;4.736;2022-07-03T01:07:29;2.70;;;2.40;;
8819;SDS011;4446;50.876;4.736;2022-07-03T01:10:04;2.88;;;2.53;;
8819;SDS011;4446;50.876;4.736;2022-07-03T01:12:38;3.00;;;2.70;;
8819;SDS011;4446;50.876;4.736;2022-07-03T01:15:27;3.50;;;2.30;;
8819;SDS011;4446;50.876;4.736;2022-07-03T01:18:03;2.78;;;2.30;;
8819;SDS011;4446;50.876;4.736;2022-07-03T01:20:41;3.33;;;2.47;;
8819;SDS011;4446;50.876;4.736;2022-07-03T01:23:15;3.03;;;2.40;;
8819;SDS011;4446;50.876;4.736;2022-07-03T01:25:52;4.82;;;2.92;;
8819;SDS011;4446;50.876;4.736;2022-07-03T01:28:20;3.00;;;2.70;;
8819;SDS011;4446;50.876;4.736;2022-07-03T01:30:49;2.40;;;2.20;;
8819;SDS011;4446;50.876;4.736;2022-07-03T01:33:18;3.28;;;2.47;;
8819;SDS011;4446;50.876;4.736;2022-07-03T01:35:47;3.25;;;2.70;;
8819;SDS011;4446;50.876;4.736;2022-07-03T01:38:26;2.97;;;2.47;;
8819;SDS011;4446;50.876;4.736;2022-07-03T01:40:56;3.83;;;2.80;;
8819;SDS011;4446;50.876;4.736;2022-07-03T01:43:25;3.05;;;2.75;;
8819;SDS011;4446;50.876;4.736;2022-07-03T01:45:56;3.78;;;2.72;;
8819;SDS011;4446;50.876;4.736;2022-07-03T01:48:24;4.20;;;2.97;;
8819;SDS011;4446;50.876;4.736;2022-07-03T01:50:52;3.35;;;3.00;;
8819;SDS011;4446;50.876;4.736;2022-07-03T01:53:20;3.05;;;2.60;;
8819;SDS011;4446;50.876;4.736;2022-07-03T01:55:51;3.22;;;2.40;;
8819;SDS011;4446;50.876;4.736;2022-07-03T01:58:23;2.38;;;2.17;;
8819;SDS011;4446;50.876;4.736;2022-07-03T02:00:52;2.92;;;2.63;;
8819;SDS011;4446;50.876;4.736;2022-07-03T02:03:29;3.80;;;2.83;;
8819;SDS011;4446;50.876;4.736;2022-07-03T02:06:01;2.05;;;1.95;;
8819;SDS011;4446;50.876;4.736;2022-07-03T02:08:34;2.53;;;2.33;;
8819;SDS011;4446;50.876;4.736;2022-07-03T02:11:11;2.67;;;2.20;;
8819;SDS011;4446;50.876;4.736;2022-07-03T02:13:51;2.20;;;2.00;;
8819;SDS011;4446;50.876;4.736;2022-07-03T02:16:23;2.50;;;1.88;;
8819;SDS011;4446;50.876;4.736;2022-07-03T02:18:58;3.35;;;2.20;;
8819;SDS011;4446;50.876;4.736;2022-07-03T02:21:30;2.30;;;1.90;;
8819;SDS011;4446;50.876;4.736;2022-07-03T02:24:09;3.28;;;2.13;;
8819;SDS011;4446;50.876;4.736;2022-07-03T02:26:49;3.75;;;2.05;;
8819;SDS011;4446;50.876;4.736;2022-07-03T02:29:23;3.30;;;2.30;;
8819;SDS011;4446;50.876;4.736;2022-07-03T02:31:57;2.83;;;1.92;;
8819;SDS011;4446;50.876;4.736;2022-07-03T02:34:27;3.00;;;2.20;;
8819;SDS011;4446;50.876;4.736;2022-07-03T02:36:58;2.22;;;2.10;;
8819;SDS011;4446;50.876;4.736;2022-07-03T02:39:35;3.38;;;2.20;;
8819;SDS011;4446;50.876;4.736;2022-07-03T02:42:11;2.25;;;1.60;;
8819;SDS011;4446;50.876;4.736;2022-07-03T02:44:46;2.67;;;1.83;;
8819;SDS011;4446;50.876;4.736;2022-07-03T02:47:23;1.88;;;1.77;;
8819;SDS011;4446;50.876;4.736;2022-07-03T02:50:04;2.05;;;1.60;;
8819;SDS011;4446;50.876;4.736;2022-07-03T02:52:37;2.22;;;1.80;;
8819;SDS011;4446;50.876;4.736;2022-07-03T02:55:13;1.75;;;1.65;;
8819;SDS011;4446;50.876;4.736;2022-07-03T02:57:55;1.50;;;1.40;;
8819;SDS011;4446;50.876;4.736;2022-07-03T03:00:28;2.65;;;1.77;;
8819;SDS011;4446;50.876;4.736;2022-07-03T03:03:02;2.35;;;1.52;;
8819;SDS011;4446;50.876;4.736;2022-07-03T03:05:31;2.78;;;1.60;;
8819;SDS011;4446;50.876;4.736;2022-07-03T03:08:11;1.63;;;1.42;;
8819;SDS011;4446;50.876;4.736;2022-07-03T03:10:39;2.20;;;1.70;;
8819;SDS011;4446;50.876;4.736;2022-07-03T03:13:08;1.92;;;1.48;;
8819;SDS011;4446;50.876;4.736;2022-07-03T03:15:37;1.48;;;1.30;;
8819;SDS011;4446;50.876;4.736;2022-07-03T03:18:05;1.60;;;1.50;;
8819;SDS011;4446;50.876;4.736;2022-07-03T03:20:34;2.78;;;1.50;;
8819;SDS011;4446;50.876;4.736;2022-07-03T03:23:09;2.45;;;1.70;;
8819;SDS011;4446;50.876;4.736;2022-07-03T03:25:39;2.35;;;1.50;;
8819;SDS011;4446;50.876;4.736;2022-07-03T03:28:08;3.38;;;1.75;;
8819;SDS011;4446;50.876;4.736;2022-07-03T03:30:35;2.90;;;1.77;;
8819;SDS011;4446;50.876;4.736;2022-07-03T03:33:03;1.88;;;1.70;;
8819;SDS011;4446;50.876;4.736;2022-07-03T03:35:32;2.35;;;1.60;;
8819;SDS011;4446;50.876;4.736;2022-07-03T03:38:00;2.08;;;1.88;;
8819;SDS011;4446;50.876;4.736;2022-07-03T03:40:27;2.15;;;1.50;;
8819;SDS011;4446;50.876;4.736;2022-07-03T03:42:54;2.45;;;1.88;;
8819;SDS011;4446;50.876;4.736;2022-07-03T03:45:22;1.77;;;1.60;;
8819;SDS011;4446;50.876;4.736;2022-07-03T03:47:49;1.95;;;1.60;;
8819;SDS011;4446;50.876;4.736;2022-07-03T03:50:16;2.25;;;1.80;;
8819;SDS011;4446;50.876;4.736;2022-07-03T03:52:44;2.85;;;1.95;;
8819;SDS011;4446;50.876;4.736;2022-07-03T03:55:11;2.20;;;2.03;;
8819;SDS011;4446;50.876;4.736;2022-07-03T03:57:38;2.40;;;1.75;;
8819;SDS011;4446;50.876;4.736;2022-07-03T04:00:06;1.98;;;1.70;;
8819;SDS011;4446;50.876;4.736;2022-07-03T04:02:35;2.35;;;1.75;;
8819;SDS011;4446;50.876;4.736;2022-07-03T04:05:02;1.90;;;1.63;;
8819;SDS011;4446;50.876;4.736;2022-07-03T04:07:30;2.92;;;1.80;;
8819;SDS011;4446;50.876;4.736;2022-07-03T04:09:57;3.83;;;2.00;;
8819;SDS011;4446;50.876;4.736;2022-07-03T04:12:24;2.03;;;1.80;;
8819;SDS011;4446;50.876;4.736;2022-07-03T04:14:51;2.67;;;1.77;;
8819;SDS011;4446;50.876;4.736;2022-07-03T04:17:18;2.22;;;1.60;;
8819;SDS011;4446;50.876;4.736;2022-07-03T04:19:46;2.92;;;1.63;;
8819;SDS011;4446;50.876;4.736;2022-07-03T04:22:13;2.10;;;1.90;;
8819;SDS011;4446;50.876;4.736;2022-07-03T04:24:40;2.28;;;1.65;;
8819;SDS011;4446;50.876;4.736;2022-07-03T04:27:07;2.00;;;1.80;;
8819;SDS011;4446;50.876;4.736;2022-07-03T04:29:34;2.80;;;1.90;;
8819;SDS011;4446;50.876;4.736;2022-07-03T04:32:01;2.85;;;2.17;;
8819;SDS011;4446;50.876;4.736;2022-07-03T04:34:29;2.03;;;1.83;;
8819;SDS011;4446;50.876;4.736;2022-07-03T04:36:57;2.03;;;1.80;;
8819;SDS011;4446;50.876;4.736;2022-07-03T04:39:24;2.83;;;1.88;;
8819;SDS011;4446;50.876;4.736;2022-07-03T04:41:51;2.45;;;1.60;;
8819;SDS011;4446;50.876;4.736;2022-07-03T04:44:19;1.92;;;1.77;;
8819;SDS011;4446;50.876;4.736;2022-07-03T04:46:45;2.53;;;1.40;;
8819;SDS011;4446;50.876;4.736;2022-07-03T04:49:13;2.22;;;1.67;;
8819;SDS011;4446;50.876;4.736;2022-07-03T04:51:40;1.40;;;1.30;;
8819;SDS011;4446;50.876;4.736;2022-07-03T04:54:08;2.63;;;1.65;;
8819;SDS011;4446;50.876;4.736;2022-07-03T04:56:35;3.55;;;1.85;;
8819;SDS011;4446;50.876;4.736;2022-07-03T04:59:02;1.70;;;1.60;;
8819;SDS011;4446;50.876;4.736;2022-07-03T05:01:29;1.73;;;1.63;;
8819;SDS011;4446;50.876;4.736;2022-07-03T05:03:56;2.00;;;1.80;;
8819;SDS011;4446;50.876;4.736;2022-07-03T05:06:23;3.00;;;1.70;;
8819;SDS011;4446;50.876;4.736;2022-07-03T05:08:50;1.88;;;1.70;;
8819;SDS011;4446;50.876;4.736;2022-07-03T05:11:19;2.17;;;1.98;;
8819;SDS011;4446;50.876;4.736;2022-07-03T05:13:46;2.70;;;1.70;;
8819;SDS011;4446;50.876;4.736;2022-07-03T05:16:13;2.80;;;1.80;;
8819;SDS011;4446;50.876;4.736;2022-07-03T05:18:40;1.90;;;1.63;;
8819;SDS011;4446;50.876;4.736;2022-07-03T05:21:07;1.70;;;1.60;;
8819;SDS011;4446;50.876;4.736;2022-07-03T05:23:34;1.92;;;1.70;;
8819;SDS011;4446;50.876;4.736;2022-07-03T05:26:01;2.42;;;1.60;;
8819;SDS011;4446;50.876;4.736;2022-07-03T05:28:29;2.33;;;1.50;;
8819;SDS011;4446;50.876;4.736;2022-07-03T05:30:56;1.98;;;1.60;;
8819;SDS011;4446;50.876;4.736;2022-07-03T05:33:23;2.88;;;1.83;;
8819;SDS011;4446;50.876;4.736;2022-07-03T05:35:50;1.88;;;1.70;;
8819;SDS011;4446;50.876;4.736;2022-07-03T05:38:20;1.60;;;1.50;;
8819;SDS011;4446;50.876;4.736;2022-07-03T05:41:01;1.48;;;1.35;;
8819;SDS011;4446;50.876;4.736;2022-07-03T05:43:29;2.65;;;1.60;;
8819;SDS011;4446;50.876;4.736;2022-07-03T05:45:57;3.10;;;1.70;;
8819;SDS011;4446;50.876;4.736;2022-07-03T05:48:24;1.77;;;1.50;;
8819;SDS011;4446;50.876;4.736;2022-07-03T05:50:51;1.83;;;1.60;;
8819;SDS011;4446;50.876;4.736;2022-07-03T05:53:19;3.13;;;1.52;;
8819;SDS011;4446;50.876;4.736;2022-07-03T05:55:46;1.65;;;1.55;;
8819;SDS011;4446;50.876;4.736;2022-07-03T05:58:14;2.72;;;1.52;;
8819;SDS011;4446;50.876;4.736;2022-07-03T06:00:42;2.33;;;1.70;;
8819;SDS011;4446;50.876;4.736;2022-07-03T06:03:10;2.20;;;1.58;;
8819;SDS011;4446;50.876;4.736;2022-07-03T06:05:37;3.17;;;1.80;;
8819;SDS011;4446;50.876;4.736;2022-07-03T06:08:04;3.88;;;1.80;;
8819;SDS011;4446;50.876;4.736;2022-07-03T06:10:32;1.67;;;1.52;;
8819;SDS011;4446;50.876;4.736;2022-07-03T06:12:59;1.60;;;1.50;;
8819;SDS011;4446;50.876;4.736;2022-07-03T06:15:26;2.15;;;1.58;;
8819;SDS011;4446;50.876;4.736;2022-07-03T06:17:54;2.10;;;1.40;;
8819;SDS011;4446;50.876;4.736;2022-07-03T06:20:21;2.28;;;1.60;;
8819;SDS011;4446;50.876;4.736;2022-07-03T06:22:49;2.78;;;1.48;;
8819;SDS011;4446;50.876;4.736;2022-07-03T06:25:16;2.47;;;1.58;;
8819;SDS011;4446;50.876;4.736;2022-07-03T06:27:43;1.77;;;1.67;;
8819;SDS011;4446;50.876;4.736;2022-07-03T06:30:10;4.60;;;1.98;;
8819;SDS011;4446;50.876;4.736;2022-07-03T06:32:38;2.53;;;2.00;;
8819;SDS011;4446;50.876;4.736;2022-07-03T06:35:06;2.35;;;1.70;;
8819;SDS011;4446;50.876;4.736;2022-07-03T06:37:34;2.75;;;1.77;;
8819;SDS011;4446;50.876;4.736;2022-07-03T06:40:01;2.63;;;2.05;;
8819;SDS011;4446;50.876;4.736;2022-07-03T06:42:29;2.25;;;1.80;;
8819;SDS011;4446;50.876;4.736;2022-07-03T06:44:56;3.45;;;2.30;;
8819;SDS011;4446;50.876;4.736;2022-07-03T06:47:23;2.58;;;1.90;;
8819;SDS011;4446;50.876;4.736;2022-07-03T06:49:50;2.53;;;2.03;;
8819;SDS011;4446;50.876;4.736;2022-07-03T06:52:20;3.33;;;2.30;;
8819;SDS011;4446;50.876;4.736;2022-07-03T06:54:47;3.80;;;2.17;;
8819;SDS011;4446;50.876;4.736;2022-07-03T06:57:17;3.22;;;2.13;;
8819;SDS011;4446;50.876;4.736;2022-07-03T06:59:44;1.88;;;1.67;;
8819;SDS011;4446;50.876;4.736;2022-07-03T07:02:12;2.75;;;1.90;;
8819;SDS011;4446;50.876;4.736;2022-07-03T07:04:40;2.50;;;1.90;;
8819;SDS011;4446;50.876;4.736;2022-07-03T07:07:07;2.38;;;1.90;;
8819;SDS011;4446;50.876;4.736;2022-07-03T07:09:35;3.22;;;1.80;;
8819;SDS011;4446;50.876;4.736;2022-07-03T07:12:03;3.75;;;2.13;;
8819;SDS011;4446;50.876;4.736;2022-07-03T07:14:30;3.95;;;1.92;;
8819;SDS011;4446;50.876;4.736;2022-07-03T07:16:57;2.05;;;1.75;;
8819;SDS011;4446;50.876;4.736;2022-07-03T07:19:24;2.55;;;1.60;;
8819;SDS011;4446;50.876;4.736;2022-07-03T07:21:51;3.60;;;2.00;;
8819;SDS011;4446;50.876;4.736;2022-07-03T07:24:18;1.60;;;1.50;;
8819;SDS011;4446;50.876;4.736;2022-07-03T07:26:47;3.17;;;1.70;;
8819;SDS011;4446;50.876;4.736;2022-07-03T07:29:14;1.90;;;1.80;;
8819;SDS011;4446;50.876;4.736;2022-07-03T07:31:41;3.22;;;1.67;;
8819;SDS011;4446;50.876;4.736;2022-07-03T07:34:08;2.65;;;1.77;;
8819;SDS011;4446;50.876;4.736;2022-07-03T07:36:35;2.10;;;1.58;;
8819;SDS011;4446;50.876;4.736;2022-07-03T07:39:02;2.10;;;1.63;;
8819;SDS011;4446;50.876;4.736;2022-07-03T07:41:29;1.98;;;1.48;;
8819;SDS011;4446;50.876;4.736;2022-07-03T07:43:58;2.67;;;1.70;;
8819;SDS011;4446;50.876;4.736;2022-07-03T07:46:25;2.55;;;1.80;;
8819;SDS011;4446;50.876;4.736;2022-07-03T07:48:52;3.55;;;1.40;;
8819;SDS011;4446;50.876;4.736;2022-07-03T07:51:19;2.92;;;1.55;;
8819;SDS011;4446;50.876;4.736;2022-07-03T07:53:46;1.90;;;1.55;;
8819;SDS011;4446;50.876;4.736;2022-07-03T07:56:14;1.88;;;1.35;;
8819;SDS011;4446;50.876;4.736;2022-07-03T07:58:41;3.72;;;1.70;;
8819;SDS011;4446;50.876;4.736;2022-07-03T08:01:09;1.52;;;1.40;;
8819;SDS011;4446;50.876;4.736;2022-07-03T08:03:54;1.85;;;1.40;;
8819;SDS011;4446;50.876;4.736;2022-07-03T08:06:39;1.92;;;1.45;;
8819;SDS011;4446;50.876;4.736;2022-07-03T08:09:06;2.75;;;1.42;;
8819;SDS011;4446;50.876;4.736;2022-07-03T08:11:33;2.30;;;1.23;;
8819;SDS011;4446;50.876;4.736;2022-07-03T08:14:00;2.75;;;1.50;;
8819;SDS011;4446;50.876;4.736;2022-07-03T08:16:31;1.35;;;1.20;;
8819;SDS011;4446;50.876;4.736;2022-07-03T08:18:58;1.67;;;1.33;;
8819;SDS011;4446;50.876;4.736;2022-07-03T08:21:25;1.45;;;1.35;;
8819;SDS011;4446;50.876;4.736;2022-07-03T08:23:52;3.30;;;1.85;;
8819;SDS011;4446;50.876;4.736;2022-07-03T08:26:19;2.80;;;1.40;;
8819;SDS011;4446;50.876;4.736;2022-07-03T08:28:46;2.70;;;1.58;;
8819;SDS011;4446;50.876;4.736;2022-07-03T08:31:13;1.98;;;1.58;;
8819;SDS011;4446;50.876;4.736;2022-07-03T08:33:41;2.03;;;1.58;;
8819;SDS011;4446;50.876;4.736;2022-07-03T08:36:08;2.17;;;1.50;;
8819;SDS011;4446;50.876;4.736;2022-07-03T08:38:36;2.38;;;1.58;;
8819;SDS011;4446;50.876;4.736;2022-07-03T08:41:03;3.33;;;1.30;;
8819;SDS011;4446;50.876;4.736;2022-07-03T08:43:30;1.77;;;1.30;;
8819;SDS011;4446;50.876;4.736;2022-07-03T08:45:58;2.00;;;1.25;;
8819;SDS011;4446;50.876;4.736;2022-07-03T08:48:26;1.38;;;1.27;;
8819;SDS011;4446;50.876;4.736;2022-07-03T08:50:56;2.28;;;1.30;;
8819;SDS011;4446;50.876;4.736;2022-07-03T08:53:24;2.50;;;1.60;;
8819;SDS011;4446;50.876;4.736;2022-07-03T08:55:52;2.25;;;1.58;;
8819;SDS011;4446;50.876;4.736;2022-07-03T08:58:20;1.75;;;1.65;;
8819;SDS011;4446;50.876;4.736;2022-07-03T09:00:49;2.83;;;1.35;;
8819;SDS011;4446;50.876;4.736;2022-07-03T09:03:16;2.65;;;1.40;;
8819;SDS011;4446;50.876;4.736;2022-07-03T09:05:46;4.35;;;1.60;;
8819;SDS011;4446;50.876;4.736;2022-07-03T09:08:15;1.92;;;1.50;;
8819;SDS011;4446;50.876;4.736;2022-07-03T09:10:43;2.83;;;1.60;;
8819;SDS011;4446;50.876;4.736;2022-07-03T09:13:11;1.55;;;1.30;;
8819;SDS011;4446;50.876;4.736;2022-07-03T09:15:38;3.58;;;1.70;;
8819;SDS011;4446;50.876;4.736;2022-07-03T09:18:06;2.40;;;1.50;;
8819;SDS011;4446;50.876;4.736;2022-07-03T09:20:34;3.05;;;1.60;;
8819;SDS011;4446;50.876;4.736;2022-07-03T09:23:12;1.50;;;1.35;;
8819;SDS011;4446;50.876;4.736;2022-07-03T09:25:52;3.85;;;1.70;;
8819;SDS011;4446;50.876;4.736;2022-07-03T09:28:21;2.30;;;1.65;;
8819;SDS011;4446;50.876;4.736;2022-07-03T09:30:55;1.95;;;1.40;;
8819;SDS011;4446;50.876;4.736;2022-07-03T09:33:24;2.50;;;1.45;;
8819;SDS011;4446;50.876;4.736;2022-07-03T09:35:52;1.75;;;1.40;;
8819;SDS011;4446;50.876;4.736;2022-07-03T09:38:20;2.88;;;1.40;;
8819;SDS011;4446;50.876;4.736;2022-07-03T09:40:47;1.75;;;1.10;;
8819;SDS011;4446;50.876;4.736;2022-07-03T09:43:21;2.90;;;1.42;;
8819;SDS011;4446;50.876;4.736;2022-07-03T09:45:50;1.23;;;1.13;;
8819;SDS011;4446;50.876;4.736;2022-07-03T09:48:25;1.60;;;1.30;;
8819;SDS011;4446;50.876;4.736;2022-07-03T09:51:07;2.42;;;1.38;;
8819;SDS011;4446;50.876;4.736;2022-07-03T09:53:50;1.40;;;1.23;;
8819;SDS011;4446;50.876;4.736;2022-07-03T09:56:20;1.40;;;1.30;;
8819;SDS011;4446;50.876;4.736;2022-07-03T09:59:02;1.60;;;1.20;;
8819;SDS011;4446;50.876;4.736;2022-07-03T10:01:34;1.98;;;1.50;;
8819;SDS011;4446;50.876;4.736;2022-07-03T10:06:53;2.45;;;1.50;;
8819;SDS011;4446;50.876;4.736;2022-07-03T10:09:22;2.63;;;1.25;;
8819;SDS011;4446;50.876;4.736;2022-07-03T10:11:50;1.30;;;1.10;;
8819;SDS011;4446;50.876;4.736;2022-07-03T10:14:20;1.75;;;1.30;;
8819;SDS011;4446;50.876;4.736;2022-07-03T10:16:48;1.60;;;1.20;;
8819;SDS011;4446;50.876;4.736;2022-07-03T10:19:18;2.22;;;1.30;;
8819;SDS011;4446;50.876;4.736;2022-07-03T10:21:51;2.15;;;1.30;;
8819;SDS011;4446;50.876;4.736;2022-07-03T10:24:21;1.40;;;1.23;;
8819;SDS011;4446;50.876;4.736;2022-07-03T10:26:49;1.80;;;1.27;;
8819;SDS011;4446;50.876;4.736;2022-07-03T10:29:16;2.03;;;1.02;;
8819;SDS011;4446;50.876;4.736;2022-07-03T10:31:47;3.67;;;1.30;;
8819;SDS011;4446;50.876;4.736;2022-07-03T10:34:16;1.35;;;1.20;;
8819;SDS011;4446;50.876;4.736;2022-07-03T10:36:45;2.05;;;1.20;;
8819;SDS011;4446;50.876;4.736;2022-07-03T10:39:18;1.00;;;1.00;;
8819;SDS011;4446;50.876;4.736;2022-07-03T10:41:53;1.73;;;1.35;;
8819;SDS011;4446;50.876;4.736;2022-07-03T10:44:49;1.40;;;1.30;;
8819;SDS011;4446;50.876;4.736;2022-07-03T10:47:37;1.58;;;1.35;;
8819;SDS011;4446;50.876;4.736;2022-07-03T10:50:12;1.90;;;1.35;;
8819;SDS011;4446;50.876;4.736;2022-07-03T10:52:40;1.73;;;1.30;;
8819;SDS011;4446;50.876;4.736;2022-07-03T10:55:08;1.88;;;1.27;;
8819;SDS011;4446;50.876;4.736;2022-07-03T10:57:35;2.38;;;1.60;;
8819;SDS011;4446;50.876;4.736;2022-07-03T11:00:04;2.15;;;1.23;;
8819;SDS011;4446;50.876;4.736;2022-07-03T11:02:35;2.13;;;1.33;;
8819;SDS011;4446;50.876;4.736;2022-07-03T11:05:08;1.75;;;1.20;;
8819;SDS011;4446;50.876;4.736;2022-07-03T11:07:43;1.13;;;1.05;;
8819;SDS011;4446;50.876;4.736;2022-07-03T11:10:31;1.85;;;1.20;;
8819;SDS011;4446;50.876;4.736;2022-07-03T11:13:01;1.45;;;1.20;;
8819;SDS011;4446;50.876;4.736;2022-07-03T11:15:30;1.30;;;1.10;;
8819;SDS011;4446;50.876;4.736;2022-07-03T11:18:10;3.25;;;1.30;;
8819;SDS011;4446;50.876;4.736;2022-07-03T11:20:59;1.65;;;1.30;;
8819;SDS011;4446;50.876;4.736;2022-07-03T11:27:20;1.15;;;1.05;;
8819;SDS011;4446;50.876;4.736;2022-07-03T11:29:57;2.25;;;1.23;;
8819;SDS011;4446;50.876;4.736;2022-07-03T11:32:42;1.08;;;1.02;;
8819;SDS011;4446;50.876;4.736;2022-07-03T11:38:17;1.40;;;1.20;;
8819;SDS011;4446;50.876;4.736;2022-07-03T11:40:47;1.30;;;1.10;;
8819;SDS011;4446;50.876;4.736;2022-07-03T11:43:16;1.10;;;1.00;;
8819;SDS011;4446;50.876;4.736;2022-07-03T11:45:44;1.48;;;1.20;;
8819;SDS011;4446;50.876;4.736;2022-07-03T11:48:14;1.20;;;1.10;;
8819;SDS011;4446;50.876;4.736;2022-07-03T11:50:42;1.42;;;1.23;;
8819;SDS011;4446;50.876;4.736;2022-07-03T11:53:22;1.42;;;1.20;;
8819;SDS011;4446;50.876;4.736;2022-07-03T11:55:57;1.50;;;1.38;;
8819;SDS011;4446;50.876;4.736;2022-07-03T11:58:27;1.35;;;1.25;;
8819;SDS011;4446;50.876;4.736;2022-07-03T12:01:07;1.10;;;1.10;;
8819;SDS011;4446;50.876;4.736;2022-07-03T12:03:35;1.83;;;1.40;;
8819;SDS011;4446;50.876;4.736;2022-07-03T12:06:02;1.38;;;1.20;;
8819;SDS011;4446;50.876;4.736;2022-07-03T12:08:31;1.67;;;1.30;;
8819;SDS011;4446;50.876;4.736;2022-07-03T12:11:00;1.33;;;1.23;;
8819;SDS011;4446;50.876;4.736;2022-07-03T12:13:29;2.38;;;1.25;;
8819;SDS011;4446;50.876;4.736;2022-07-03T12:16:01;1.42;;;1.20;;
8819;SDS011;4446;50.876;4.736;2022-07-03T12:18:40;2.22;;;1.30;;
8819;SDS011;4446;50.876;4.736;2022-07-03T12:21:12;1.15;;;1.10;;
8819;SDS011;4446;50.876;4.736;2022-07-03T12:23:42;1.20;;;1.10;;
8819;SDS011;4446;50.876;4.736;2022-07-03T12:26:10;1.58;;;1.15;;
8819;SDS011;4446;50.876;4.736;2022-07-03T12:28:38;1.17;;;1.08;;
8819;SDS011;4446;50.876;4.736;2022-07-03T12:31:09;1.17;;;1.00;;
8819;SDS011;4446;50.876;4.736;2022-07-03T12:33:36;1.58;;;1.17;;
8819;SDS011;4446;50.876;4.736;2022-07-03T12:36:06;1.88;;;1.15;;
8819;SDS011;4446;50.876;4.736;2022-07-03T12:38:35;2.03;;;1.10;;
8819;SDS011;4446;50.876;4.736;2022-07-03T12:41:05;1.60;;;1.10;;
8819;SDS011;4446;50.876;4.736;2022-07-03T12:43:37;1.00;;;0.90;;
8819;SDS011;4446;50.876;4.736;2022-07-03T12:46:18;2.00;;;1.00;;
8819;SDS011;4446;50.876;4.736;2022-07-03T12:48:47;1.30;;;0.93;;
8819;SDS011;4446;50.876;4.736;2022-07-03T12:51:17;2.88;;;1.20;;
8819;SDS011;4446;50.876;4.736;2022-07-03T12:54:04;1.52;;;1.20;;
8819;SDS011;4446;50.876;4.736;2022-07-03T12:56:32;1.27;;;1.10;;
8819;SDS011;4446;50.876;4.736;2022-07-03T12:58:59;2.15;;;1.10;;
8819;SDS011;4446;50.876;4.736;2022-07-03T13:01:43;2.35;;;1.10;;
8819;SDS011;4446;50.876;4.736;2022-07-03T13:04:11;0.80;;;0.80;;
8819;SDS011;4446;50.876;4.736;2022-07-03T13:06:43;1.13;;;1.02;;
8819;SDS011;4446;50.876;4.736;2022-07-03T13:09:11;2.38;;;1.20;;
8819;SDS011;4446;50.876;4.736;2022-07-03T13:11:40;2.53;;;1.10;;
8819;SDS011;4446;50.876;4.736;2022-07-03T13:14:09;1.17;;;1.08;;
8819;SDS011;4446;50.876;4.736;2022-07-03T13:16:41;1.67;;;1.20;;
8819;SDS011;4446;50.876;4.736;2022-07-03T13:19:10;1.27;;;1.13;;
8819;SDS011;4446;50.876;4.736;2022-07-03T13:21:39;1.63;;;1.30;;
8819;SDS011;4446;50.876;4.736;2022-07-03T13:24:08;1.48;;;1.20;;
8819;SDS011;4446;50.876;4.736;2022-07-03T13:26:36;2.78;;;1.20;;
8819;SDS011;4446;50.876;4.736;2022-07-03T13:29:04;1.88;;;0.90;;
8819;SDS011;4446;50.876;4.736;2022-07-03T13:31:31;0.95;;;0.93;;
8819;SDS011;4446;50.876;4.736;2022-07-03T13:33:58;3.58;;;1.00;;
8819;SDS011;4446;50.876;4.736;2022-07-03T13:36:26;1.05;;;0.95;;
8819;SDS011;4446;50.876;4.736;2022-07-03T13:38:54;0.98;;;0.90;;
8819;SDS011;4446;50.876;4.736;2022-07-03T13:41:21;2.08;;;1.00;;
8819;SDS011;4446;50.876;4.736;2022-07-03T13:43:49;2.25;;;1.25;;
8819;SDS011;4446;50.876;4.736;2022-07-03T13:46:18;1.77;;;1.20;;
8819;SDS011;4446;50.876;4.736;2022-07-03T13:48:47;0.93;;;0.90;;
8819;SDS011;4446;50.876;4.736;2022-07-03T13:51:14;1.52;;;1.10;;
8819;SDS011;4446;50.876;4.736;2022-07-03T13:53:41;1.27;;;0.93;;
8819;SDS011;4446;50.876;4.736;2022-07-03T13:56:08;2.08;;;1.20;;
8819;SDS011;4446;50.876;4.736;2022-07-03T13:58:36;2.50;;;1.55;;
8819;SDS011;4446;50.876;4.736;2022-07-03T14:01:03;2.90;;;1.30;;
8819;SDS011;4446;50.876;4.736;2022-07-03T14:03:32;1.20;;;1.10;;
8819;SDS011;4446;50.876;4.736;2022-07-03T14:05:59;4.78;;;1.27;;
8819;SDS011;4446;50.876;4.736;2022-07-03T14:08:26;1.75;;;1.30;;
8819;SDS011;4446;50.876;4.736;2022-07-03T14:10:53;1.38;;;1.10;;
8819;SDS011;4446;50.876;4.736;2022-07-03T14:13:21;1.48;;;1.10;;
8819;SDS011;4446;50.876;4.736;2022-07-03T14:15:48;1.25;;;1.15;;
8819;SDS011;4446;50.876;4.736;2022-07-03T14:18:15;3.17;;;1.33;;
8819;SDS011;4446;50.876;4.736;2022-07-03T14:20:43;1.40;;;1.30;;
8819;SDS011;4446;50.876;4.736;2022-07-03T14:23:11;1.77;;;1.63;;
8819;SDS011;4446;50.876;4.736;2022-07-03T14:25:38;1.42;;;1.10;;
8819;SDS011;4446;50.876;4.736;2022-07-03T14:28:05;1.42;;;1.20;;
8819;SDS011;4446;50.876;4.736;2022-07-03T14:30:49;1.70;;;1.20;;
8819;SDS011;4446;50.876;4.736;2022-07-03T14:33:33;2.92;;;1.90;;
8819;SDS011;4446;50.876;4.736;2022-07-03T14:36:02;1.70;;;1.20;;
8819;SDS011;4446;50.876;4.736;2022-07-03T14:38:30;3.78;;;2.88;;
8819;SDS011;4446;50.876;4.736;2022-07-03T14:40:57;1.40;;;1.20;;
8819;SDS011;4446;50.876;4.736;2022-07-03T14:43:24;2.08;;;1.30;;
8819;SDS011;4446;50.876;4.736;2022-07-03T14:45:51;1.65;;;1.30;;
8819;SDS011;4446;50.876;4.736;2022-07-03T14:48:18;1.85;;;1.30;;
8819;SDS011;4446;50.876;4.736;2022-07-03T14:50:46;1.60;;;1.30;;
8819;SDS011;4446;50.876;4.736;2022-07-03T14:53:14;1.70;;;1.50;;
8819;SDS011;4446;50.876;4.736;2022-07-03T14:55:42;1.30;;;1.10;;
8819;SDS011;4446;50.876;4.736;2022-07-03T14:58:15;2.72;;;1.60;;
8819;SDS011;4446;50.876;4.736;2022-07-03T15:00:47;3.60;;;1.33;;
8819;SDS011;4446;50.876;4.736;2022-07-03T15:03:18;2.08;;;1.30;;
8819;SDS011;4446;50.876;4.736;2022-07-03T15:05:53;1.40;;;1.30;;
8819;SDS011;4446;50.876;4.736;2022-07-03T15:08:27;2.08;;;1.42;;
8819;SDS011;4446;50.876;4.736;2022-07-03T15:11:06;1.73;;;1.20;;
8819;SDS011;4446;50.876;4.736;2022-07-03T15:13:59;2.30;;;1.20;;
8819;SDS011;4446;50.876;4.736;2022-07-03T15:16:31;1.15;;;1.00;;
8819;SDS011;4446;50.876;4.736;2022-07-03T15:18:59;2.58;;;1.40;;
8819;SDS011;4446;50.876;4.736;2022-07-03T15:21:31;1.30;;;1.20;;
8819;SDS011;4446;50.876;4.736;2022-07-03T15:24:01;2.15;;;1.33;;
8819;SDS011;4446;50.876;4.736;2022-07-03T15:26:29;2.08;;;1.20;;
8819;SDS011;4446;50.876;4.736;2022-07-03T15:28:57;3.33;;;1.88;;
8819;SDS011;4446;50.876;4.736;2022-07-03T15:31:27;1.52;;;1.10;;
8819;SDS011;4446;50.876;4.736;2022-07-03T15:34:02;1.90;;;1.20;;
8819;SDS011;4446;50.876;4.736;2022-07-03T15:36:34;3.58;;;1.20;;
8819;SDS011;4446;50.876;4.736;2022-07-03T15:39:06;2.83;;;1.30;;
8819;SDS011;4446;50.876;4.736;2022-07-03T15:41:37;1.60;;;1.17;;